Details From YBRM - Broome Intl
To WADD - Denpasar Ngurah Rai Intl
Flight Number -
Tags Decoded
Created
Modified
Stats Distance 707 nm / 1,309 km
Max Altitude 0 ft / 0 m
Waypoints 3
Social Downloads 1
Likes 0
Share VATSIM

Download

Looking for another format? Having issues loading an existing format? Contact us
Advertisement - Login to hide

Notes

Decoded

Route

YBRM EGATU WADD

ID Type Via Altitude Latitude Longitude Leg Dist Tot Dist Heading (true) Name
O YBRM APT - 0 ft / 0 m -17.94581˚ 122.21626˚ - 0 nm - -
EGATU FIX - 0 ft / 0 m -12.00000˚ 116.09333˚ 503 nm 503 nm 314° / 316° -
O WADD APT - 0 ft / 0 m -8.74871˚ 115.15363˚ 202 nm 706 nm 344° / 344° -

Altitude Profile

Advertisement - Login to hide

Weather


0- 5 10 15 20 25 30 35+ Temperature / ° C

Clouds and Precipitation
Forecast for 2017-12-16 18:00 UTC. Updated an hour ago

Ground ~20,000 ft ~40,000 ft Winds

YBRM

Details ICAO YBRM
Name Broome Intl
Region Australia
Timezone Australia/Perth (UTC+8.0)
Stats Elevation 56 ft / 17 m (AMSL)
Location -17.948745° 122.227225°
Runways 1
Magnetic Variation 1.801° E

METAR

YBRM 161830Z AUTO 28008KT 9999 // SCT016 29/25 Q1006 RF00.0/000.0

Decode

TAF

TAF YBRM 161732Z 1618/1718 27010KT 9999 SCT018 FM170000 29010KT CAVOK FM170300 29014KT CAVOK FM171000 28008KT 9999 SCT020

Decode

Departure Runways

ID Width Length Bearing (true) Bearing (mag) Surface Threshold Offset Overrun Length
10 148 ft / 45 m 8,325 ft / 2,537 m 105.60° 103.80° Asphalt 292 ft / 89 m 52 ft / 16 m
28 148 ft / 45 m 8,325 ft / 2,537 m 285.60° 283.80° Asphalt 666 ft / 203 m 0 ft / 0 m

WADD

Details ICAO WADD (DPS)
Name Denpasar Ngurah Rai Intl
Region Indonesia
Timezone Asia/Makassar (UTC+8.0)
Stats Elevation 14 ft / 4 m (AMSL)
Location -8.748169° 115.167174°
Runways 1
Magnetic Variation 1.055° E

METAR

WADD 161800Z 29009KT 9999 SCT012 27/25 Q1009 NOSIG

Decode

TAF

TAF WADD 161700Z 1618/1718 30010KT 9999 SCT016 TEMPO 1618/1622 FEW015CB SCT016 TEMPO 1705/1709 FEW015CB SCT016

Decode

Destination Runways

ID Width Length Bearing (true) Bearing (mag) Surface Threshold Offset Overrun Length
09 148 ft / 45 m 9,779 ft / 2,981 m 87.71° 86.65° Asphalt 121 ft / 37 m 75 ft / 23 m
27 148 ft / 45 m 9,779 ft / 2,981 m 267.70° 266.64° Asphalt 0 ft / 0 m 197 ft / 60 m

Approach Navaids

Runway Type Ident Frequency Range Bearing (true) Bearing (mag) Slope Elevation
27 Localiser IDPS 110.30 MHz 18 nm / 33 km 267.70° 266.65° - 10 ft / 3 m (AMSL)
27 Glidescope IDPS 110.30 MHz 10 nm / 19 km 267.70° 266.65° 3.00° 12 ft / 4 m (AMSL)
27 DME IDPS 110.30 MHz 18 nm / 33 km - - - 14 ft / 4 m (AMSL)

Popular Alternatives